Time;durP1;ratioP1;P1;durP2;ratioP2;P2;SDS_P1;SDS_P2;PMS_P1;PMS_P2;Temp;Humidity;BMP_temperature;BMP_pressure;BME280_temperature;BME280_humidity;BME280_pressure;Samples;Min_cycle;Max_cycle;Signal;HPM_P1;HPM_P2
2023/10/01 00:00:28;;;;;;;9.68;4.63;;;20.30;99.90;;;;;;5013288;28;20037;-36
2023/10/01 00:02:56;;;;;;;8.48;4.10;;;20.20;99.90;;;;;;5013053;28;20500;-34
2023/10/01 00:05:24;;;;;;;6.72;4.25;;;20.30;99.90;;;;;;5013020;28;20021;-35
2023/10/01 00:07:51;;;;;;;6.80;4.55;;;20.30;99.90;;;;;;5012785;28;20022;-37
2023/10/01 00:10:18;;;;;;;8.20;4.38;;;20.20;99.90;;;;;;5013036;28;20392;-34
2023/10/01 00:12:46;;;;;;;8.90;4.55;;;20.20;99.90;;;;;;5012964;28;20025;-38
2023/10/01 00:15:17;;;;;;;8.25;3.88;;;20.20;99.90;;;;;;5012860;28;20422;-37
2023/10/01 00:17:44;;;;;;;7.93;4.40;;;20.20;99.90;;;;;;5012496;28;20022;-36
2023/10/01 00:20:20;;;;;;;7.65;4.07;;;20.20;99.90;;;;;;5012761;28;20030;-36
2023/10/01 00:22:46;;;;;;;8.52;4.40;;;20.20;99.90;;;;;;5012709;28;20562;-36
2023/10/01 00:25:12;;;;;;;6.68;4.32;;;20.20;99.90;;;;;;5012648;28;20400;-34
2023/10/01 00:27:38;;;;;;;8.68;4.43;;;20.20;99.90;;;;;;5012463;28;20053;-33
2023/10/01 00:30:10;;;;;;;8.32;4.32;;;20.20;99.90;;;;;;5012660;28;20109;-34
2023/10/01 00:32:39;;;;;;;10.18;4.43;;;20.20;99.90;;;;;;5012659;28;20026;-36
2023/10/01 00:35:06;;;;;;;7.93;4.50;;;20.20;99.90;;;;;;5012652;28;20130;-34
2023/10/01 00:37:35;;;;;;;6.97;4.15;;;20.20;99.90;;;;;;5012285;28;20499;-35
2023/10/01 00:40:05;;;;;;;7.07;4.13;;;20.20;99.90;;;;;;5012482;28;20041;-35
2023/10/01 00:42:33;;;;;;;6.72;4.20;;;20.20;99.90;;;;;;5012279;28;20457;-37
2023/10/01 00:44:58;;;;;;;7.78;4.30;;;20.20;99.90;;;;;;5012252;28;20025;-35
2023/10/01 00:47:31;;;;;;;7.47;4.35;;;20.20;99.90;;;;;;5011975;28;20038;-36
2023/10/01 00:49:58;;;;;;;6.93;4.50;;;20.20;99.90;;;;;;5012357;28;20029;-34
2023/10/01 00:52:24;;;;;;;7.25;4.40;;;20.10;99.90;;;;;;5012250;28;20022;-37
2023/10/01 00:54:54;;;;;;;8.43;4.20;;;20.20;99.90;;;;;;4994616;28;20081;-37
2023/10/01 00:57:21;;;;;;;8.10;4.07;;;20.10;99.90;;;;;;5012092;28;20033;-37
2023/10/01 00:59:48;;;;;;;9.13;4.38;;;20.20;99.90;;;;;;5012004;28;20018;-39
2023/10/01 01:02:15;;;;;;;10.27;3.90;;;20.10;99.90;;;;;;5012183;28;20395;-37
2023/10/01 01:04:45;;;;;;;7.13;4.18;;;20.10;99.90;;;;;;5011877;28;20018;-42
2023/10/01 01:07:19;;;;;;;9.77;4.55;;;20.10;99.90;;;;;;5011810;28;20041;-36
2023/10/01 01:09:49;;;;;;;8.10;4.60;;;20.10;99.90;;;;;;5011982;28;20028;-35
2023/10/01 01:12:15;;;;;;;8.82;4.35;;;20.10;99.90;;;;;;5011866;28;20487;-41
2023/10/01 01:14:44;;;;;;;7.65;4.13;;;20.10;99.90;;;;;;5011774;28;20032;-39
2023/10/01 01:17:13;;;;;;;6.57;3.92;;;20.10;99.90;;;;;;5011729;28;20148;-35
2023/10/01 01:19:41;;;;;;;7.22;4.22;;;20.10;99.90;;;;;;5011857;28;20022;-36
2023/10/01 01:22:09;;;;;;;8.02;4.20;;;20.10;99.90;;;;;;5011914;28;20026;-36
2023/10/01 01:24:36;;;;;;;7.57;4.35;;;20.10;99.90;;;;;;5011607;28;20026;-34
2023/10/01 01:27:05;;;;;;;8.90;4.60;;;20.10;99.90;;;;;;5011513;28;20040;-34
2023/10/01 01:29:40;;;;;;;10.00;4.75;;;20.10;99.90;;;;;;5011275;28;20036;-42
2023/10/01 01:32:08;;;;;;;8.05;4.25;;;20.10;99.90;;;;;;5011711;28;20109;-37
2023/10/01 01:34:37;;;;;;;8.88;4.80;;;20.10;99.90;;;;;;5011485;28;20025;-36
2023/10/01 01:37:06;;;;;;;7.03;4.18;;;20.10;99.90;;;;;;5011444;28;20026;-36
2023/10/01 01:39:54;;;;;;;7.18;4.25;;;20.10;99.90;;;;;;5011447;28;20069;-33
2023/10/01 01:42:21;;;;;;;7.15;4.18;;;20.10;99.90;;;;;;5011516;28;20029;-34
2023/10/01 01:45:15;;;;;;;8.05;4.57;;;20.10;99.90;;;;;;5011431;28;20018;-37
2023/10/01 01:47:39;;;;;;;7.85;4.13;;;20.10;99.90;;;;;;5010915;28;20038;-34
2023/10/01 01:50:26;;;;;;;6.95;4.05;;;20.10;99.90;;;;;;5011470;28;20105;-34
2023/10/01 01:52:56;;;;;;;7.97;4.22;;;20.10;99.90;;;;;;5011506;28;20068;-34
2023/10/01 01:55:29;;;;;;;8.07;4.40;;;20.10;99.90;;;;;;5011364;28;20026;-34
2023/10/01 01:58:08;;;;;;;8.80;4.10;;;20.10;99.90;;;;;;5011375;28;20426;-38
2023/10/01 02:00:37;;;;;;;8.80;4.10;;;20.00;99.90;;;;;;5011522;28;20080;-40
2023/10/01 02:03:10;;;;;;;7.65;4.20;;;20.00;99.90;;;;;;5011305;28;20026;-36
2023/10/01 02:05:41;;;;;;;7.15;4.22;;;20.00;99.90;;;;;;5011142;28;20072;-34
2023/10/01 02:08:09;;;;;;;7.90;4.60;;;20.00;99.90;;;;;;5011326;28;20110;-36
2023/10/01 02:10:44;;;;;;;8.48;4.20;;;20.00;99.90;;;;;;5011347;28;20336;-39
2023/10/01 02:13:12;;;;;;;6.90;4.00;;;20.00;99.90;;;;;;5011646;28;20037;-39
2023/10/01 02:15:38;;;;;;;8.70;4.50;;;20.00;99.90;;;;;;5011111;28;20502;-33
2023/10/01 02:18:04;;;;;;;8.02;4.20;;;20.00;99.90;;;;;;5011175;28;20030;-36
2023/10/01 02:20:33;;;;;;;8.05;4.50;;;20.00;99.90;;;;;;5011629;28;20022;-36
2023/10/01 02:23:02;;;;;;;8.20;4.43;;;20.00;99.90;;;;;;5011803;28;20023;-36
2023/10/01 02:25:37;;;;;;;6.30;3.58;;;20.00;99.90;;;;;;5011471;28;20026;-36
2023/10/01 02:28:14;;;;;;;7.53;4.10;;;19.90;99.90;;;;;;5011637;28;20054;-41
2023/10/01 02:30:46;;;;;;;7.57;4.18;;;20.00;99.90;;;;;;5013852;28;20384;-34
2023/10/01 02:33:16;;;;;;;7.50;4.15;;;20.00;99.90;;;;;;5011573;28;20026;-40
2023/10/01 02:35:42;;;;;;;9.13;4.63;;;20.00;99.90;;;;;;5011501;28;20018;-36
2023/10/01 02:38:36;;;;;;;7.57;4.15;;;20.00;99.90;;;;;;5011002;28;20468;-36
2023/10/01 02:41:01;;;;;;;8.40;4.13;;;20.00;99.90;;;;;;5012085;28;20084;-35
2023/10/01 02:43:35;;;;;;;8.73;4.45;;;20.00;99.90;;;;;;5014623;28;20025;-34
2023/10/01 02:46:08;;;;;;;8.95;4.30;;;20.00;99.90;;;;;;5014768;28;20029;-35
2023/10/01 02:48:34;;;;;;;8.40;4.15;;;19.90;99.90;;;;;;5014422;28;20406;-33
2023/10/01 02:51:32;;;;;;;11.57;4.30;;;19.90;99.90;;;;;;5014499;28;20022;-33
2023/10/01 02:54:05;;;;;;;6.78;3.90;;;19.90;99.90;;;;;;5013808;28;20062;-38
2023/10/01 02:56:37;;;;;;;7.78;4.40;;;19.90;99.90;;;;;;5014104;28;20434;-33
2023/10/01 02:59:09;;;;;;;7.50;4.25;;;19.90;99.90;;;;;;5014332;28;20025;-34
2023/10/01 03:01:38;;;;;;;7.60;4.40;;;19.90;99.90;;;;;;5014250;28;20044;-34
2023/10/01 03:04:10;;;;;;;6.03;3.83;;;19.90;99.90;;;;;;5014204;28;20028;-34
2023/10/01 03:06:42;;;;;;;6.80;3.75;;;19.90;99.90;;;;;;5013998;28;20028;-36
2023/10/01 03:09:22;;;;;;;6.80;3.78;;;19.90;99.90;;;;;;5014252;28;20018;-36
2023/10/01 03:11:57;;;;;;;6.55;4.03;;;19.90;99.90;;;;;;5014149;28;20109;-36
2023/10/01 03:14:26;;;;;;;6.45;3.88;;;19.90;99.90;;;;;;5014056;28;20021;-36
2023/10/01 03:16:55;;;;;;;9.25;4.18;;;19.90;99.90;;;;;;4996214;28;20033;-38
2023/10/01 03:19:25;;;;;;;8.40;4.60;;;19.90;99.90;;;;;;5013823;28;20018;-37
2023/10/01 03:24:31;;;;;;;6.82;4.13;;;19.90;99.90;;;;;;5014220;28;20464;-36
2023/10/01 03:27:20;;;;;;;9.93;4.55;;;19.90;99.90;;;;;;5013671;28;20024;-35
2023/10/01 03:29:48;;;;;;;7.15;4.00;;;19.90;99.90;;;;;;5013634;28;20030;-36
2023/10/01 03:32:27;;;;;;;7.05;3.65;;;19.90;99.90;;;;;;5014137;28;20034;-36
2023/10/01 03:34:53;;;;;;;6.85;3.83;;;19.90;99.90;;;;;;5013693;28;20033;-38
2023/10/01 03:37:27;;;;;;;8.27;4.03;;;19.90;99.90;;;;;;5013564;28;20470;-38
2023/10/01 03:40:04;;;;;;;;;;;19.90;99.90;;;;;;5014251;28;20026;-40
2023/10/01 03:42:33;;;;;;;6.50;3.67;;;19.90;99.90;;;;;;5013478;28;19936;-36
2023/10/01 03:47:41;;;;;;;8.40;4.18;;;19.80;99.90;;;;;;5013700;28;20037;-36
2023/10/01 03:50:09;;;;;;;5.75;3.70;;;19.80;99.90;;;;;;5013453;28;20156;-33
2023/10/01 03:52:39;;;;;;;7.80;3.97;;;19.80;99.90;;;;;;5012643;28;20065;-36
2023/10/01 03:55:26;;;;;;;6.45;4.10;;;19.80;99.90;;;;;;5013472;28;20083;-33
2023/10/01 03:57:56;;;;;;;7.05;3.95;;;19.80;99.90;;;;;;5013209;28;20029;-40
2023/10/01 04:00:34;;;;;;;6.07;3.85;;;19.80;99.90;;;;;;5013714;28;20038;-36
2023/10/01 04:03:00;;;;;;;7.45;4.35;;;19.80;99.90;;;;;;5013085;28;20026;-33
2023/10/01 04:05:37;;;;;;;7.03;3.90;;;19.80;99.90;;;;;;5012928;28;20072;-35
2023/10/01 04:08:08;;;;;;;7.20;3.90;;;19.80;99.90;;;;;;5013446;28;20030;-35
2023/10/01 04:10:35;;;;;;;6.97;3.83;;;19.70;99.90;;;;;;5013206;28;20163;-38
2023/10/01 04:13:12;;;;;;;8.65;4.50;;;19.80;99.90;;;;;;5012990;28;20028;-40
2023/10/01 04:15:48;;;;;;;6.90;3.90;;;19.80;99.90;;;;;;5013222;28;20046;-38
2023/10/01 04:23:47;;;;;;;6.00;3.80;;;19.80;99.90;;;;;;5012841;28;20387;-37
2023/10/01 04:26:16;;;;;;;7.57;4.03;;;19.80;99.90;;;;;;5012412;28;20025;-36
2023/10/01 04:28:47;;;;;;;7.78;3.85;;;19.80;99.90;;;;;;5012703;28;20388;-37
2023/10/01 04:31:18;;;;;;;5.47;3.50;;;19.80;99.90;;;;;;5012703;28;20062;-36
2023/10/01 04:33:49;;;;;;;7.63;3.72;;;19.80;99.90;;;;;;5012809;28;20029;-37
2023/10/01 04:36:16;;;;;;;7.18;4.10;;;19.70;99.90;;;;;;5012307;28;20033;-37
2023/10/01 04:38:43;;;;;;;6.60;3.90;;;19.80;99.90;;;;;;5012471;28;20049;-36
2023/10/01 04:41:27;;;;;;;7.57;3.67;;;19.70;99.90;;;;;;5012484;28;20157;-37
2023/10/01 04:43:55;;;;;;;8.10;4.00;;;19.70;99.90;;;;;;5012462;28;20543;-33
2023/10/01 04:46:24;;;;;;;6.55;3.88;;;19.70;99.90;;;;;;5011878;28;20273;-37
2023/10/01 04:48:54;;;;;;;6.35;3.55;;;19.70;99.90;;;;;;5012387;28;20034;-38
2023/10/01 04:51:22;;;;;;;7.30;4.03;;;19.70;99.90;;;;;;5012507;28;20129;-38
2023/10/01 04:53:48;;;;;;;6.18;4.03;;;19.70;99.90;;;;;;5012262;28;20022;-36
2023/10/01 04:56:25;;;;;;;7.57;3.83;;;19.70;99.90;;;;;;5011954;28;20450;-36
2023/10/01 04:58:51;;;;;;;7.40;4.10;;;19.70;99.90;;;;;;5012277;28;20109;-33
2023/10/01 05:01:23;;;;;;;6.70;3.78;;;19.70;99.90;;;;;;5012506;28;20025;-35
2023/10/01 05:03:52;;;;;;;6.95;3.55;;;19.70;99.90;;;;;;5011524;28;20022;-33
2023/10/01 05:06:19;;;;;;;8.27;3.85;;;19.70;99.90;;;;;;5011538;28;20484;-38
2023/10/01 05:08:49;;;;;;;6.95;3.85;;;19.60;99.90;;;;;;5011988;28;20041;-40
2023/10/01 05:11:21;;;;;;;7.72;3.97;;;19.70;99.90;;;;;;5011913;28;20022;-33
2023/10/01 05:13:47;;;;;;;7.80;3.95;;;19.70;99.90;;;;;;5012058;28;20054;-36
2023/10/01 05:16:18;;;;;;;7.53;3.85;;;19.70;99.90;;;;;;5011535;28;20040;-35
2023/10/01 05:18:45;;;;;;;6.05;3.83;;;19.70;99.90;;;;;;5012008;28;20049;-36
2023/10/01 05:21:12;;;;;;;6.75;4.00;;;19.70;99.90;;;;;;5011868;28;20049;-40
2023/10/01 05:23:45;;;;;;;8.57;4.20;;;19.70;99.90;;;;;;4994056;28;20550;-34
2023/10/01 05:26:11;;;;;;;7.07;3.70;;;19.60;99.90;;;;;;5011660;28;20026;-36
2023/10/01 05:28:41;;;;;;;7.22;3.65;;;19.70;99.90;;;;;;5011582;28;20028;-36
2023/10/01 05:31:15;;;;;;;6.70;4.25;;;19.60;99.90;;;;;;5011646;28;20026;-36
2023/10/01 05:33:46;;;;;;;;;;;19.60;99.90;;;;;;5012187;28;20021;-37
2023/10/01 05:36:13;;;;;;;8.45;3.70;;;19.60;99.90;;;;;;5011499;28;20278;-41
2023/10/01 05:38:42;;;;;;;7.40;4.05;;;19.60;99.90;;;;;;5011609;28;20022;-34
2023/10/01 05:41:15;;;;;;;7.32;4.00;;;19.60;99.90;;;;;;5011572;28;20632;-34
2023/10/01 05:43:50;;;;;;;7.35;4.00;;;19.60;99.90;;;;;;5011517;28;20113;-35
2023/10/01 05:46:17;;;;;;;;;;;19.60;99.90;;;;;;5011709;28;20032;-34
2023/10/01 05:48:44;;;;;;;6.32;4.03;;;19.60;99.90;;;;;;5011507;28;19916;-35
2023/10/01 05:51:20;;;;;;;6.75;4.07;;;19.60;99.90;;;;;;5011567;28;20080;-37
2023/10/01 05:53:46;;;;;;;7.78;4.10;;;19.60;99.90;;;;;;5011764;28;20026;-36
2023/10/01 05:56:15;;;;;;;7.07;3.72;;;19.60;99.90;;;;;;5011314;28;20022;-37
2023/10/01 05:58:42;;;;;;;6.85;4.25;;;19.60;99.90;;;;;;5011429;28;20022;-39
2023/10/01 06:01:16;;;;;;;6.88;3.88;;;19.60;99.90;;;;;;5011386;28;20160;-36
2023/10/01 06:03:44;;;;;;;7.25;4.18;;;19.60;99.90;;;;;;5012021;28;20422;-39
2023/10/01 06:06:14;;;;;;;6.32;3.88;;;19.60;99.90;;;;;;5011660;28;20101;-40
2023/10/01 06:08:46;;;;;;;7.22;3.88;;;19.60;99.90;;;;;;5011539;28;20105;-37
2023/10/01 06:11:16;;;;;;;7.90;4.05;;;19.60;99.90;;;;;;5011474;28;20033;-35
2023/10/01 06:13:49;;;;;;;10.13;4.10;;;19.60;99.90;;;;;;5011624;28;20499;-39
2023/10/01 06:16:23;;;;;;;7.05;3.92;;;19.60;99.90;;;;;;5014170;28;20325;-36
2023/10/01 06:18:51;;;;;;;7.43;4.07;;;19.60;99.90;;;;;;5021509;28;20101;-33
2023/10/01 06:21:23;;;;;;;9.13;3.75;;;19.60;99.90;;;;;;5021581;28;20018;-36
2023/10/01 06:23:49;;;;;;;6.65;3.83;;;19.60;99.90;;;;;;5018036;28;20041;-33
2023/10/01 06:26:22;;;;;;;6.95;3.78;;;19.60;99.90;;;;;;5014866;28;20022;-39
2023/10/01 06:28:48;;;;;;;6.07;4.10;;;19.60;99.90;;;;;;5014829;28;20022;-37
2023/10/01 06:31:17;;;;;;;6.55;3.95;;;19.60;99.90;;;;;;5015038;28;20041;-40
2023/10/01 06:33:44;;;;;;;6.68;3.80;;;19.60;99.90;;;;;;5014874;28;20026;-36
2023/10/01 06:36:21;;;;;;;5.85;3.67;;;19.70;99.90;;;;;;5014669;28;20391;-36
2023/10/01 06:38:48;;;;;;;9.68;4.18;;;19.70;99.90;;;;;;5014774;28;20075;-36
2023/10/01 06:41:16;;;;;;;6.75;3.80;;;19.70;99.90;;;;;;5014736;28;20026;-36
2023/10/01 06:43:48;;;;;;;7.28;4.00;;;19.70;99.90;;;;;;5014552;28;20045;-34
2023/10/01 06:46:27;;;;;;;7.28;3.97;;;19.70;99.90;;;;;;5014405;28;20041;-33
2023/10/01 06:48:56;;;;;;;6.78;3.50;;;19.70;99.90;;;;;;5014623;28;20061;-34
2023/10/01 06:51:24;;;;;;;7.13;3.72;;;19.70;99.90;;;;;;5014526;28;20522;-39
2023/10/01 06:53:58;;;;;;;7.25;3.90;;;19.70;99.90;;;;;;5014453;28;20033;-38
2023/10/01 06:56:26;;;;;;;5.68;3.50;;;19.70;99.90;;;;;;5014269;28;20451;-36
2023/10/01 07:01:35;;;;;;;5.97;3.38;;;19.70;99.90;;;;;;5014836;28;20484;-37
2023/10/01 07:04:07;;;;;;;9.20;4.22;;;19.80;99.90;;;;;;5014250;28;20040;-36
2023/10/01 07:06:36;;;;;;;5.97;3.70;;;19.80;99.90;;;;;;5013945;28;20137;-36
2023/10/01 07:09:24;;;;;;;7.72;4.38;;;19.70;99.90;;;;;;5014405;28;20064;-36
2023/10/01 07:12:10;;;;;;;6.20;3.63;;;19.80;99.90;;;;;;5014116;28;20404;-34
2023/10/01 07:14:39;;;;;;;7.05;3.70;;;19.80;99.90;;;;;;5013453;28;20041;-40
2023/10/01 07:17:15;;;;;;;6.25;3.40;;;19.80;99.90;;;;;;5013872;28;20391;-39
2023/10/01 07:19:41;;;;;;;6.95;4.00;;;19.80;99.90;;;;;;5014110;28;20026;-40
2023/10/01 07:22:14;;;;;;;4.88;3.50;;;19.80;99.90;;;;;;5013892;28;20018;-36
2023/10/01 07:24:40;;;;;;;6.30;3.90;;;19.80;99.90;;;;;;5013850;28;20022;-36
2023/10/01 07:27:07;;;;;;;6.50;3.78;;;19.80;99.90;;;;;;5037657;28;20040;-34
2023/10/01 07:29:34;;;;;;;6.55;3.30;;;19.90;99.90;;;;;;5053557;28;20051;-34
2023/10/01 07:32:12;;;;;;;5.72;3.92;;;19.90;99.90;;;;;;5053639;28;20035;-36
2023/10/01 07:34:49;;;;;;;5.63;3.63;;;19.90;99.90;;;;;;5053389;28;20432;-35
2023/10/01 07:37:31;;;;;;;6.15;3.58;;;19.90;99.90;;;;;;5053344;28;20367;-36
2023/10/01 07:40:17;;;;;;;5.47;3.45;;;19.90;99.90;;;;;;5053263;28;20561;-33
2023/10/01 07:42:54;;;;;;;6.03;3.65;;;19.90;99.90;;;;;;5053194;28;20029;-34
2023/10/01 07:45:20;;;;;;;6.75;3.63;;;19.90;99.90;;;;;;5053250;28;20512;-35
2023/10/01 07:47:48;;;;;;;6.55;3.50;;;19.90;99.90;;;;;;5052984;28;20044;-36
2023/10/01 07:50:16;;;;;;;6.93;3.58;;;19.90;99.90;;;;;;5053016;28;20048;-35
2023/10/01 07:52:44;;;;;;;4.68;3.20;;;19.90;99.90;;;;;;5053059;28;20104;-37
2023/10/01 07:55:35;;;;;;;5.53;3.38;;;20.00;99.90;;;;;;5052951;28;20075;-39
2023/10/01 08:00:47;;;;;;;6.70;3.50;;;19.90;99.90;;;;;;5053171;28;20039;-34
2023/10/01 08:05:48;;;;;;;5.88;3.42;;;20.00;99.90;;;;;;5052933;28;20502;-38
2023/10/01 08:08:35;;;;;;;5.93;3.38;;;20.00;99.90;;;;;;5052827;28;20104;-36
2023/10/01 08:11:02;;;;;;;6.32;3.47;;;20.00;99.90;;;;;;5052619;28;20075;-35
2023/10/01 08:13:30;;;;;;;6.72;3.63;;;20.00;99.90;;;;;;5052705;28;20035;-35
2023/10/01 08:16:02;;;;;;;6.15;3.35;;;20.00;99.90;;;;;;5052447;28;20028;-35
2023/10/01 08:18:34;;;;;;;6.25;3.50;;;20.00;99.90;;;;;;5052589;28;20032;-38
2023/10/01 08:21:02;;;;;;;6.35;2.97;;;20.10;99.90;;;;;;5052590;28;20432;-34
2023/10/01 08:23:36;;;;;;;5.95;3.70;;;20.00;99.90;;;;;;5052399;28;20055;-36
2023/10/01 08:28:56;;;;;;;6.45;3.47;;;20.10;99.90;;;;;;5052543;28;20243;-33
2023/10/01 08:34:22;;;;;;;4.65;3.22;;;20.10;99.90;;;;;;5052520;28;20513;-35
2023/10/01 08:36:55;;;;;;;5.28;3.22;;;20.10;99.90;;;;;;5052131;28;20508;-35
2023/10/01 08:39:48;;;;;;;6.32;3.90;;;20.10;99.90;;;;;;5052075;28;20028;-36
2023/10/01 08:42:16;;;;;;;5.05;3.28;;;20.10;99.90;;;;;;5052872;28;20036;-37
2023/10/01 08:44:52;;;;;;;4.82;3.10;;;20.10;99.90;;;;;;5052136;28;20021;-37
2023/10/01 08:47:31;;;;;;;6.63;3.45;;;20.10;99.90;;;;;;5051829;28;20064;-38
2023/10/01 08:50:27;;;;;;;6.07;3.47;;;20.20;99.90;;;;;;5052067;28;20525;-37
2023/10/01 08:53:01;;;;;;;5.78;3.28;;;20.20;99.90;;;;;;5051987;28;20031;-39
2023/10/01 08:56:04;;;;;;;5.28;3.22;;;20.20;99.90;;;;;;5051726;28;20029;-36
2023/10/01 08:58:27;;;;;;;4.93;3.42;;;20.20;99.90;;;;;;5051634;28;20116;-36
2023/10/01 09:01:14;;;;;;;5.18;3.30;;;20.20;99.90;;;;;;5051854;28;20032;-39
2023/10/01 09:03:47;;;;;;;5.72;3.40;;;20.30;99.90;;;;;;5051896;28;20036;-35
2023/10/01 09:06:29;;;;;;;7.17;3.53;;;20.30;99.90;;;;;;5051503;28;20021;-38
2023/10/01 09:09:19;;;;;;;5.28;3.17;;;20.30;99.90;;;;;;5051830;28;20100;-39
2023/10/01 09:11:49;;;;;;;6.22;3.10;;;20.30;99.90;;;;;;5051728;28;20013;-34
2023/10/01 09:14:17;;;;;;;6.13;3.20;;;20.30;99.90;;;;;;5051836;28;20053;-35
2023/10/01 09:16:58;;;;;;;5.45;3.28;;;20.30;99.90;;;;;;5051333;28;20027;-34
2023/10/01 09:19:30;;;;;;;6.40;3.60;;;20.30;99.90;;;;;;5051626;28;20017;-37
2023/10/01 09:24:55;;;;;;;5.38;3.58;;;20.30;99.90;;;;;;5051618;28;20497;-34
2023/10/01 09:27:25;;;;;;;6.30;3.25;;;20.30;99.90;;;;;;5051412;28;20029;-34
2023/10/01 09:32:51;;;;;;;6.22;3.13;;;20.40;99.90;;;;;;5051549;28;20043;-34
2023/10/01 09:35:38;;;;;;;5.18;3.47;;;20.40;99.90;;;;;;5051276;28;20053;-35
2023/10/01 09:38:18;;;;;;;6.35;3.58;;;20.40;99.90;;;;;;5051228;28;20080;-35
2023/10/01 09:40:51;;;;;;;5.88;3.60;;;20.40;99.90;;;;;;5051142;28;20025;-36
2023/10/01 09:43:30;;;;;;;5.15;3.20;;;20.40;99.90;;;;;;5051290;28;20029;-38
2023/10/01 09:46:03;;;;;;;6.47;3.33;;;20.40;99.90;;;;;;5051087;28;20078;-41
2023/10/01 09:48:33;;;;;;;5.90;3.55;;;20.40;99.90;;;;;;5051531;28;20032;-42
2023/10/01 09:51:09;;;;;;;5.90;3.30;;;20.40;99.90;;;;;;5054434;28;20032;-36
2023/10/01 09:54:00;;;;;;;5.70;3.15;;;20.40;99.90;;;;;;5057827;28;20036;-39
2023/10/01 09:56:26;;;;;;;5.50;3.47;;;20.40;99.90;;;;;;5057454;28;20434;-36
2023/10/01 09:59:07;;;;;;;7.10;3.70;;;20.40;99.90;;;;;;5057730;28;20521;-43
2023/10/01 10:01:39;;;;;;;5.63;3.45;;;20.50;99.90;;;;;;5057924;28;20029;-37
2023/10/01 10:04:06;;;;;;;6.18;3.72;;;20.50;99.90;;;;;;5057840;28;20032;-39
2023/10/01 10:06:33;;;;;;;5.68;3.47;;;20.50;99.90;;;;;;5058126;28;20032;-36
2023/10/01 10:09:04;;;;;;;6.78;3.72;;;20.50;99.90;;;;;;5057884;28;20236;-40
2023/10/01 10:11:38;;;;;;;4.13;2.83;;;20.50;99.90;;;;;;5061910;28;20029;-36
2023/10/01 10:14:25;;;;;;;6.50;3.42;;;20.50;99.90;;;;;;5064263;28;20029;-35
2023/10/01 10:17:18;;;;;;;7.55;3.85;;;20.60;99.90;;;;;;5060928;28;20100;-35
2023/10/01 10:23:13;;;;;;;5.53;3.45;;;20.60;99.90;;;;;;5057628;28;20047;-35
2023/10/01 10:25:43;;;;;;;6.22;3.60;;;20.60;99.90;;;;;;5057373;28;20024;-38
2023/10/01 10:28:09;;;;;;;5.68;3.42;;;20.60;99.90;;;;;;5057522;28;20029;-33
2023/10/01 10:30:41;;;;;;;6.97;3.88;;;20.60;99.90;;;;;;5057384;28;20013;-33
2023/10/01 10:33:15;;;;;;;5.90;3.55;;;20.70;99.90;;;;;;5057473;28;20032;-35
2023/10/01 10:35:49;;;;;;;6.40;3.67;;;20.70;99.90;;;;;;5057253;28;20025;-36
2023/10/01 10:38:53;;;;;;;8.00;3.88;;;20.70;99.90;;;;;;5057386;28;20379;-40
2023/10/01 10:41:25;;;;;;;6.30;3.92;;;20.70;99.90;;;;;;4976096;28;20451;-42
2023/10/01 10:44:09;;;;;;;6.55;4.00;;;20.70;99.90;;;;;;5045736;28;20037;-42
2023/10/01 10:47:04;;;;;;;7.13;3.75;;;20.70;99.90;;;;;;5039108;28;20453;-38
2023/10/01 10:49:49;;;;;;;5.72;3.60;;;20.70;99.90;;;;;;5057509;28;20025;-36
2023/10/01 10:52:31;;;;;;;6.47;3.55;;;20.70;99.90;;;;;;5057381;28;20036;-36
2023/10/01 10:55:16;;;;;;;6.63;3.70;;;20.70;99.90;;;;;;5057194;28;20082;-36
2023/10/01 10:57:48;;;;;;;7.35;4.10;;;20.80;99.90;;;;;;5057013;28;20046;-34
2023/10/01 11:00:23;;;;;;;7.18;4.35;;;20.80;99.90;;;;;;5057312;28;20461;-38
2023/10/01 11:02:56;;;;;;;7.05;3.90;;;20.80;99.90;;;;;;5055289;28;20482;-36
2023/10/01 11:05:21;;;;;;;6.45;4.03;;;20.80;99.90;;;;;;5054983;28;20096;-35
2023/10/01 11:08:00;;;;;;;7.72;4.25;;;20.80;99.90;;;;;;5054096;28;20053;-36
2023/10/01 11:10:45;;;;;;;8.55;4.20;;;20.80;99.90;;;;;;5054502;28;20470;-37
2023/10/01 11:13:13;;;;;;;8.38;4.28;;;20.80;99.90;;;;;;5036122;28;20039;-34
2023/10/01 11:15:39;;;;;;;7.22;4.45;;;20.80;99.90;;;;;;5036142;28;20087;-38
2023/10/01 11:18:09;;;;;;;7.40;4.30;;;20.80;99.90;;;;;;5053904;28;20036;-35
2023/10/01 11:20:44;;;;;;;9.20;4.90;;;20.80;99.90;;;;;;5053831;28;20548;-35
2023/10/01 11:23:19;;;;;;;7.25;4.07;;;20.80;99.90;;;;;;5055193;28;20071;-35
2023/10/01 11:25:47;;;;;;;8.65;4.68;;;20.80;99.90;;;;;;5053833;28;20013;-35
2023/10/01 11:28:13;;;;;;;7.40;4.50;;;20.80;99.90;;;;;;5053839;28;20013;-35
2023/10/01 11:30:42;;;;;;;10.48;4.90;;;20.80;99.90;;;;;;5053556;28;20021;-35
2023/10/01 11:35:40;;;;;;;7.50;4.60;;;20.90;99.90;;;;;;5053321;28;20529;-36
2023/10/01 11:38:20;;;;;;;8.88;4.68;;;20.90;99.90;;;;;;5053370;28;20375;-38
2023/10/01 11:44:02;;;;;;;8.45;4.75;;;20.90;99.90;;;;;;5053237;28;20032;-33
2023/10/01 11:49:16;;;;;;;9.45;4.88;;;20.90;99.90;;;;;;5053523;28;20151;-36
2023/10/01 11:52:01;;;;;;;7.93;4.97;;;21.00;99.90;;;;;;5053208;28;20112;-36
2023/10/01 11:54:46;;;;;;;7.68;4.68;;;20.90;99.90;;;;;;5053204;28;20067;-36
2023/10/01 11:57:27;;;;;;;9.05;5.05;;;20.90;99.90;;;;;;5052990;28;20040;-39
2023/10/01 11:59:55;;;;;;;8.00;4.75;;;21.00;99.90;;;;;;5052998;28;20079;-36
2023/10/01 12:02:26;;;;;;;8.73;4.97;;;20.90;99.90;;;;;;5052779;28;20360;-35
2023/10/01 12:04:58;;;;;;;9.25;4.90;;;21.00;99.90;;;;;;5052760;28;20049;-38
2023/10/01 12:07:32;;;;;;;8.45;4.63;;;20.90;99.90;;;;;;5052966;28;20475;-38
2023/10/01 12:09:58;;;;;;;9.98;5.00;;;21.00;99.90;;;;;;5052955;28;20536;-36
2023/10/01 12:12:39;;;;;;;9.13;5.68;;;21.00;99.90;;;;;;5052958;28;20029;-35
2023/10/01 12:17:57;;;;;;;9.68;5.28;;;21.00;99.90;;;;;;5052859;28;20056;-36
2023/10/01 12:20:23;;;;;;;8.98;5.13;;;21.00;99.90;;;;;;5052504;28;20028;-36
2023/10/01 12:23:04;;;;;;;8.40;4.78;;;21.00;99.90;;;;;;5052458;28;20024;-34
2023/10/01 12:25:50;;;;;;;8.07;4.78;;;21.00;99.90;;;;;;5052378;28;20475;-35
2023/10/01 12:28:29;;;;;;;8.50;5.10;;;21.00;99.90;;;;;;5052455;28;20074;-37
2023/10/01 12:31:09;;;;;;;10.18;5.40;;;21.00;99.90;;;;;;5034538;28;20025;-37
2023/10/01 12:33:40;;;;;;;10.32;5.50;;;21.00;99.90;;;;;;5052322;28;20105;-38
2023/10/01 12:36:32;;;;;;;9.68;5.15;;;21.00;99.90;;;;;;5052090;28;20136;-37
2023/10/01 12:41:47;;;;;;;8.90;5.00;;;21.00;99.90;;;;;;5052968;28;20108;-35
2023/10/01 12:44:25;;;;;;;10.23;5.25;;;21.00;99.90;;;;;;5052093;28;20087;-34
2023/10/01 12:46:54;;;;;;;8.95;4.55;;;21.00;99.90;;;;;;5051806;28;20394;-41
2023/10/01 12:49:21;;;;;;;7.72;4.90;;;21.00;99.90;;;;;;5052040;28;20048;-37
2023/10/01 12:51:53;;;;;;;11.52;5.78;;;21.10;99.90;;;;;;5052013;28;20074;-36
2023/10/01 12:54:22;;;;;;;9.25;5.40;;;21.00;99.90;;;;;;5051774;28;20028;-40
2023/10/01 12:57:01;;;;;;;8.75;4.78;;;21.00;99.90;;;;;;5051705;28;20021;-34
2023/10/01 12:59:36;;;;;;;10.15;5.68;;;21.00;99.90;;;;;;5051967;28;20029;-38
2023/10/01 13:02:02;;;;;;;9.88;5.20;;;21.00;99.90;;;;;;5051778;28;20032;-35
2023/10/01 13:04:32;;;;;;;9.60;5.55;;;21.10;99.90;;;;;;5051664;28;20021;-36
2023/10/01 13:07:03;;;;;;;10.23;5.00;;;21.10;99.90;;;;;;5051531;28;20067;-34
2023/10/01 13:12:17;;;;;;;9.25;5.22;;;21.10;99.90;;;;;;5052560;28;20029;-35
2023/10/01 13:14:43;;;;;;;9.27;5.07;;;21.10;99.90;;;;;;5052433;28;20099;-39
2023/10/01 13:17:23;;;;;;;10.73;5.95;;;21.10;99.90;;;;;;5051483;28;20035;-39
2023/10/01 13:19:49;;;;;;;9.50;5.30;;;21.10;99.90;;;;;;5051529;28;20048;-39
2023/10/01 13:22:18;;;;;;;10.85;5.40;;;21.10;99.90;;;;;;5051879;28;20028;-36
2023/10/01 13:24:53;;;;;;;9.07;5.03;;;21.10;99.90;;;;;;5051067;28;20051;-36
2023/10/01 13:27:20;;;;;;;7.85;4.68;;;21.10;99.90;;;;;;5051212;28;20044;-34
2023/10/01 13:29:49;;;;;;;9.73;5.43;;;21.10;99.90;;;;;;5051344;28;20025;-36
2023/10/01 13:32:26;;;;;;;9.45;5.47;;;21.10;99.90;;;;;;5051323;28;20536;-38
2023/10/01 13:34:58;;;;;;;8.70;5.15;;;21.10;99.90;;;;;;5051229;28;20103;-35
2023/10/01 13:40:14;;;;;;;9.13;5.43;;;21.10;99.90;;;;;;5051315;28;20029;-36
2023/10/01 14:08:43;;;;;;;10.07;5.43;;;21.10;99.90;;;;;;5051339;28;20036;-35
2023/10/01 14:10:20;;;;;;;8.00;5.00;;;21.10;99.90;;;;;;5052796;28;20040;-33
2023/10/01 14:12:56;;;;;;;7.85;5.03;;;21.20;99.90;;;;;;5052110;28;20398;-37
2023/10/01 14:15:26;;;;;;;10.90;5.32;;;21.10;99.90;;;;;;5050976;28;20225;-35
2023/10/01 14:17:56;;;;;;;9.68;5.40;;;21.10;99.90;;;;;;5050662;28;20157;-34
2023/10/01 14:23:26;;;;;;;9.13;4.82;;;21.10;99.90;;;;;;5050807;28;20029;-38
2023/10/01 14:25:53;;;;;;;8.55;5.00;;;21.20;99.90;;;;;;5050704;28;20395;-34
2023/10/01 14:28:22;;;;;;;8.75;5.60;;;21.10;99.90;;;;;;5050759;28;20037;-36
2023/10/01 14:30:59;;;;;;;9.38;5.68;;;21.10;99.90;;;;;;5050870;28;20070;-36
2023/10/01 14:33:27;;;;;;;10.30;5.30;;;21.10;99.90;;;;;;5050926;28;20397;-35
2023/10/01 14:35:54;;;;;;;9.10;5.00;;;21.20;99.90;;;;;;5050504;28;20028;-33